createdAt,value
2022-10-23T00:01:31.806Z,36.92
2022-10-23T00:04:21.014Z,36.35
2022-10-23T00:06:49.465Z,34.47
2022-10-23T00:09:22.871Z,33.95
2022-10-23T00:11:51.082Z,33.28
2022-10-23T00:14:21.531Z,31.50
2022-10-23T00:16:49.064Z,32.83
2022-10-23T00:19:16.410Z,33.65
2022-10-23T00:21:44.080Z,32.38
2022-10-23T00:24:11.452Z,33.25
2022-10-23T00:26:40.543Z,37.00
2022-10-23T00:29:08.951Z,37.72
2022-10-23T00:31:36.996Z,31.73
2022-10-23T00:34:08.094Z,33.63
2022-10-23T00:36:36.169Z,31.58
2022-10-23T00:39:04.573Z,32.28
2022-10-23T00:41:32.717Z,31.55
2022-10-23T00:44:07.150Z,35.42
2022-10-23T00:46:35.339Z,37.30
2022-10-23T00:49:04.492Z,37.03
2022-10-23T00:51:36.436Z,33.88
2022-10-23T00:54:23.909Z,39.28
2022-10-23T00:56:55.210Z,32.92
2022-10-23T00:59:23.247Z,31.65
2022-10-23T01:01:50.890Z,33.45
2022-10-23T01:04:18.676Z,35.55
2022-10-23T01:07:01.957Z,32.35
2022-10-23T01:09:34.829Z,33.70
2022-10-23T01:12:22.553Z,30.10
2022-10-23T01:14:58.867Z,31.58
2022-10-23T01:17:44.412Z,34.85
2022-10-23T01:20:40.029Z,33.13
2022-10-23T01:23:32.917Z,37.00
2022-10-23T01:26:20.657Z,32.33
2022-10-23T01:28:55.995Z,37.60
2022-10-23T01:31:30.983Z,38.10
2022-10-23T01:34:03.104Z,35.38
2022-10-23T01:36:32.156Z,38.00
2022-10-23T01:41:40.574Z,36.50
2022-10-23T01:44:17.760Z,38.03
2022-10-23T01:46:47.078Z,35.88
2022-10-23T01:49:15.105Z,37.45
2022-10-23T01:52:00.535Z,34.45
2022-10-23T01:54:34.141Z,36.17
2022-10-23T01:57:02.942Z,36.65
2022-10-23T01:59:35.274Z,38.88
2022-10-23T02:02:04.958Z,39.05
2022-10-23T02:04:41.124Z,39.03
2022-10-23T02:07:08.829Z,39.45
2022-10-23T02:09:36.580Z,40.17
2022-10-23T02:12:09.610Z,41.55
2022-10-23T02:14:43.405Z,36.97
2022-10-23T02:17:19.421Z,40.47
2022-10-23T02:19:51.200Z,40.72
2022-10-23T02:22:25.714Z,42.22
2022-10-23T02:24:58.110Z,42.83
2022-10-23T02:27:40.822Z,41.35
2022-10-23T02:30:10.461Z,38.33
2022-10-23T02:32:42.712Z,41.80
2022-10-23T02:35:11.509Z,41.53
2022-10-23T02:37:39.626Z,37.40
2022-10-23T02:40:09.677Z,41.10
2022-10-23T02:42:47.328Z,39.72
2022-10-23T02:45:28.160Z,37.90
2022-10-23T02:48:01.915Z,39.55
2022-10-23T02:50:38.581Z,39.85
2022-10-23T02:53:29.179Z,40.55
2022-10-23T02:56:15.608Z,41.13
2022-10-23T02:59:06.208Z,39.10
2022-10-23T03:01:40.232Z,37.63
2022-10-23T03:04:09.317Z,40.15
2022-10-23T03:06:37.332Z,39.65
2022-10-23T03:09:07.907Z,37.33
2022-10-23T03:11:35.677Z,39.65
2022-10-23T03:14:03.592Z,40.38
2022-10-23T03:16:31.009Z,40.15
2022-10-23T03:18:58.420Z,35.17
2022-10-23T03:21:26.161Z,37.80
2022-10-23T03:23:53.646Z,38.08
2022-10-23T03:26:21.550Z,37.00
2022-10-23T03:28:49.182Z,37.33
2022-10-23T03:31:16.719Z,40.47
2022-10-23T03:33:44.504Z,38.95
2022-10-23T03:36:12.336Z,39.80
2022-10-23T03:38:40.397Z,39.83
2022-10-23T03:41:07.812Z,42.85
2022-10-23T03:43:35.481Z,38.53
2022-10-23T03:46:03.020Z,37.78
2022-10-23T03:48:30.364Z,38.30
2022-10-23T03:50:58.231Z,37.90
2022-10-23T03:53:25.617Z,35.67
2022-10-23T03:55:53.446Z,35.70
2022-10-23T03:58:21.046Z,33.65
2022-10-23T04:00:49.347Z,36.10
2022-10-23T04:03:16.962Z,37.67
2022-10-23T04:05:44.312Z,38.67
2022-10-23T04:08:14.118Z,40.50
2022-10-23T04:10:43.978Z,36.63
2022-10-23T04:13:11.359Z,39.58
2022-10-23T04:15:38.791Z,39.50
2022-10-23T04:18:06.407Z,37.95
2022-10-23T04:20:33.772Z,37.45
2022-10-23T04:23:01.838Z,36.88
2022-10-23T04:25:29.515Z,38.45
2022-10-23T04:27:56.842Z,35.90
2022-10-23T04:30:24.199Z,38.83
2022-10-23T04:32:52.205Z,33.78
2022-10-23T04:35:20.247Z,35.30
2022-10-23T04:37:47.648Z,39.33
2022-10-23T04:40:15.325Z,38.92
2022-10-23T04:42:42.996Z,40.35
2022-10-23T04:45:10.896Z,42.40
2022-10-23T04:47:40.992Z,46.37
2022-10-23T04:50:08.345Z,45.17
2022-10-23T04:52:35.755Z,40.50
2022-10-23T04:55:04.077Z,49.67
2022-10-23T04:57:31.565Z,42.22
2022-10-23T04:59:59.197Z,41.95
2022-10-23T05:02:27.738Z,35.33
2022-10-23T05:04:55.286Z,36.55
2022-10-23T05:07:27.298Z,30.67
2022-10-23T05:09:55.076Z,29.33
2022-10-23T05:12:25.427Z,29.75
2022-10-23T05:14:53.464Z,30.25
2022-10-23T05:17:24.344Z,33.53
2022-10-23T05:22:25.714Z,34.88
2022-10-23T05:24:53.927Z,35.97
2022-10-23T05:27:21.975Z,38.58
2022-10-23T05:29:50.913Z,35.30
2022-10-23T05:32:19.077Z,38.17
2022-10-23T05:34:46.892Z,36.20
2022-10-23T05:37:15.733Z,38.58
2022-10-23T05:39:43.526Z,34.97
2022-10-23T05:42:11.286Z,35.38
2022-10-23T05:44:38.981Z,35.42
2022-10-23T05:47:07.773Z,32.05
2022-10-23T05:49:36.246Z,33.78
2022-10-23T05:52:07.435Z,33.50
2022-10-23T05:54:34.916Z,33.50
2022-10-23T05:57:03.151Z,35.55
2022-10-23T05:59:30.713Z,33.35
2022-10-23T06:01:58.431Z,35.83
2022-10-23T06:04:27.269Z,36.40
2022-10-23T06:06:55.165Z,40.95
2022-10-23T06:09:23.901Z,38.50
2022-10-23T06:11:54.072Z,39.38
2022-10-23T06:14:22.458Z,41.58
2022-10-23T06:16:50.237Z,40.22
2022-10-23T06:19:18.194Z,43.78
2022-10-23T06:21:45.772Z,40.67
2022-10-23T06:24:13.437Z,45.65
2022-10-23T06:26:42.472Z,39.45
2022-10-23T06:29:09.926Z,40.83
2022-10-23T06:31:37.462Z,38.17
2022-10-23T06:34:06.155Z,42.47
2022-10-23T06:36:33.675Z,39.83
2022-10-23T06:39:01.621Z,42.95
2022-10-23T06:41:33.872Z,38.90
2022-10-23T06:44:01.755Z,37.08
2022-10-23T06:46:35.111Z,36.53
2022-10-23T06:49:03.818Z,35.45
2022-10-23T06:51:31.798Z,38.05
2022-10-23T06:53:59.644Z,33.78
2022-10-23T06:56:30.383Z,35.20
2022-10-23T06:58:59.676Z,33.35
2022-10-23T07:01:27.313Z,32.25
2022-10-23T07:03:55.038Z,33.90
2022-10-23T07:06:24.149Z,36.33
2022-10-23T07:08:52.248Z,29.67
2022-10-23T07:11:21.244Z,29.15
2022-10-23T07:13:49.351Z,32.60
2022-10-23T07:16:20.174Z,28.75
2022-10-23T07:18:49.214Z,25.65
2022-10-23T07:21:19.293Z,25.85
2022-10-23T07:23:47.625Z,29.12
2022-10-23T07:26:16.062Z,28.67
2022-10-23T07:28:45.117Z,28.90
2022-10-23T07:31:14.037Z,29.37
2022-10-23T07:33:43.424Z,27.98
2022-10-23T07:36:13.498Z,24.63
2022-10-23T07:38:41.450Z,20.88
2022-10-23T07:41:11.601Z,21.35
2022-10-23T07:43:40.059Z,24.63
2022-10-23T07:46:09.865Z,20.77
2022-10-23T07:48:38.658Z,23.67
2022-10-23T07:51:13.344Z,20.58
2022-10-23T07:53:41.902Z,18.60
2022-10-23T07:56:29.750Z,18.70
2022-10-23T07:58:59.151Z,17.55
2022-10-23T08:01:35.127Z,16.42
2022-10-23T08:04:03.595Z,18.40
2022-10-23T08:06:31.238Z,16.00
2022-10-23T08:09:00.908Z,15.68
2022-10-23T08:11:35.394Z,15.18
2022-10-23T08:14:05.300Z,13.35
2022-10-23T08:16:36.122Z,15.07
2022-10-23T08:19:06.846Z,15.68
2022-10-23T08:21:34.795Z,15.95
2022-10-23T08:24:02.584Z,14.70
2022-10-23T08:26:30.462Z,14.02
2022-10-23T08:28:59.048Z,14.05
2022-10-23T08:31:26.762Z,16.30
2022-10-23T08:33:55.834Z,14.85
2022-10-23T08:36:28.849Z,15.48
2022-10-23T08:38:57.587Z,13.48
2022-10-23T08:41:34.501Z,12.30
2022-10-23T08:44:07.852Z,11.02
2022-10-23T08:46:41.631Z,12.63
2022-10-23T08:49:35.767Z,12.15
2022-10-23T08:52:14.050Z,12.30
2022-10-23T08:54:52.024Z,11.40
2022-10-23T08:57:22.391Z,12.07
2022-10-23T08:59:59.480Z,12.77
2022-10-23T09:02:30.842Z,14.52
2022-10-23T09:04:58.881Z,14.15
2022-10-23T09:07:47.508Z,12.82
2022-10-23T09:10:37.436Z,13.55
2022-10-23T09:13:43.569Z,13.05
2022-10-23T09:16:31.516Z,13.90
2022-10-23T09:18:59.514Z,16.10
2022-10-23T09:21:28.344Z,16.30
2022-10-23T09:23:56.376Z,18.08
2022-10-23T09:26:23.764Z,15.43
2022-10-23T09:28:55.400Z,14.15
2022-10-23T09:31:22.791Z,14.38
2022-10-23T09:34:01.703Z,16.77
2022-10-23T09:36:29.589Z,16.85
2022-10-23T09:38:58.996Z,13.07
2022-10-23T09:41:37.962Z,11.15
2022-10-23T09:44:08.827Z,9.90
2022-10-23T09:47:09.175Z,10.60
2022-10-23T09:49:40.062Z,8.15
2022-10-23T09:52:10.203Z,9.45
2022-10-23T09:54:44.682Z,9.93
2022-10-23T09:57:34.138Z,8.68
2022-10-23T10:00:07.986Z,8.20
2022-10-23T10:02:39.117Z,7.22
2022-10-23T10:05:31.043Z,6.68
2022-10-23T10:08:05.629Z,7.12
2022-10-23T10:10:37.016Z,6.95
2022-10-23T10:13:26.440Z,6.50
2022-10-23T10:16:01.039Z,8.93
2022-10-23T10:18:41.504Z,7.72
2022-10-23T10:21:13.712Z,8.68
2022-10-23T10:23:45.262Z,10.15
2022-10-23T10:26:25.121Z,7.53
2022-10-23T10:29:13.972Z,8.93
2022-10-23T10:31:53.744Z,9.10
2022-10-23T10:34:30.099Z,8.38
2022-10-23T10:37:00.023Z,9.50
2022-10-23T10:39:53.751Z,11.38
2022-10-23T10:42:49.612Z,12.27
2022-10-23T10:45:27.825Z,10.43
2022-10-23T10:48:22.871Z,11.75
2022-10-23T10:51:00.715Z,13.90
2022-10-23T10:54:24.216Z,16.75
2022-10-23T10:56:51.628Z,21.25
2022-10-23T10:59:31.080Z,26.45
2022-10-23T11:02:13.862Z,27.98
2022-10-23T11:04:50.571Z,33.58
2022-10-23T11:07:22.158Z,36.53
2022-10-23T11:09:50.219Z,43.13
2022-10-23T11:12:26.887Z,45.83
2022-10-23T11:14:54.502Z,44.33
2022-10-23T11:17:35.851Z,43.05
2022-10-23T11:20:15.880Z,43.55
2022-10-23T11:22:50.345Z,44.75
2022-10-23T11:25:28.666Z,44.40
2022-10-23T11:28:04.419Z,45.22
2022-10-23T11:31:12.341Z,38.58
2022-10-23T11:33:52.135Z,31.75
2022-10-23T11:36:32.584Z,31.52
2022-10-23T11:39:15.053Z,26.70
2022-10-23T11:41:49.941Z,20.75
2022-10-23T11:44:40.423Z,21.52
2022-10-23T11:47:26.747Z,16.50
2022-10-23T11:50:09.320Z,16.55
2022-10-23T11:52:45.697Z,12.35
2022-10-23T11:55:29.542Z,10.57
2022-10-23T11:58:20.449Z,11.73
2022-10-23T12:00:55.378Z,10.60
2022-10-23T12:03:28.608Z,9.52
2022-10-23T12:06:05.911Z,9.40
2022-10-23T12:08:36.108Z,12.37
2022-10-23T12:11:03.574Z,9.38
2022-10-23T12:13:37.635Z,11.90
2022-10-23T12:16:07.596Z,11.43
2022-10-23T12:18:53.074Z,9.48
2022-10-23T12:21:28.436Z,12.15
2022-10-23T12:24:14.316Z,11.35
2022-10-23T12:26:55.420Z,12.45
2022-10-23T12:29:40.950Z,13.35
2022-10-23T12:32:38.138Z,11.90
2022-10-23T12:35:17.802Z,12.82
2022-10-23T12:37:49.749Z,11.63
2022-10-23T12:40:17.801Z,13.32
2022-10-23T12:42:51.074Z,12.65
2022-10-23T12:45:19.722Z,14.15
2022-10-23T12:47:48.916Z,13.93
2022-10-23T12:50:22.336Z,13.90
2022-10-23T12:52:58.456Z,12.50
2022-10-23T12:55:30.864Z,12.00
2022-10-23T12:58:01.195Z,13.13
2022-10-23T13:00:51.109Z,10.75
2022-10-23T13:03:20.758Z,9.68
2022-10-23T13:05:50.469Z,11.65
2022-10-23T13:08:18.693Z,18.58
2022-10-23T13:10:48.439Z,11.15
2022-10-23T13:13:22.304Z,10.48
2022-10-23T13:15:50.375Z,9.88
2022-10-23T13:18:18.263Z,11.43
2022-10-23T13:20:51.724Z,12.32
2022-10-23T13:23:31.405Z,11.23
2022-10-23T13:26:03.210Z,12.00
2022-10-23T13:28:49.103Z,12.02
2022-10-23T13:31:16.368Z,12.27
2022-10-23T13:33:46.547Z,11.45
2022-10-23T13:36:13.789Z,12.00
2022-10-23T13:38:43.289Z,12.85
2022-10-23T13:41:19.574Z,12.27
2022-10-23T13:43:47.772Z,11.77
2022-10-23T13:46:20.455Z,13.07
2022-10-23T13:48:48.588Z,11.73
2022-10-23T13:51:24.614Z,11.93
2022-10-23T13:53:52.836Z,11.98
2022-10-23T13:56:22.295Z,13.65
2022-10-23T13:58:49.990Z,12.80
2022-10-23T14:01:30.005Z,14.05
2022-10-23T14:03:58.776Z,14.73
2022-10-23T14:06:26.307Z,13.38
2022-10-23T14:08:53.700Z,15.13
2022-10-23T14:11:21.799Z,14.38
2022-10-23T14:13:49.582Z,15.10
2022-10-23T14:16:19.175Z,17.30
2022-10-23T14:18:47.510Z,19.33
2022-10-23T14:21:17.798Z,20.70
2022-10-23T14:23:45.176Z,19.30
2022-10-23T14:26:15.450Z,16.08
2022-10-23T14:28:43.130Z,18.77
2022-10-23T14:31:16.584Z,18.48
2022-10-23T14:33:45.876Z,16.43
2022-10-23T14:36:13.353Z,15.60
2022-10-23T14:38:40.747Z,15.88
2022-10-23T14:41:12.986Z,21.12
2022-10-23T14:43:40.762Z,17.85
2022-10-23T14:46:35.615Z,19.30
2022-10-23T14:49:02.956Z,16.67
2022-10-23T14:51:31.204Z,16.90
2022-10-23T14:54:03.634Z,16.00
2022-10-23T14:56:37.758Z,16.27
2022-10-23T14:59:05.387Z,15.55
2022-10-23T15:01:36.259Z,15.13
2022-10-23T15:04:04.559Z,15.48
2022-10-23T15:06:33.271Z,16.95
2022-10-23T15:09:01.340Z,14.75
2022-10-23T15:11:28.973Z,15.90
2022-10-23T15:13:56.930Z,16.10
2022-10-23T15:16:24.808Z,15.88
2022-10-23T15:18:52.564Z,18.92
2022-10-23T15:21:20.123Z,42.47
2022-10-23T15:23:47.848Z,22.15
2022-10-23T15:26:21.166Z,15.25
2022-10-23T15:28:59.696Z,14.85
2022-10-23T15:31:30.583Z,17.37
2022-10-23T15:33:58.895Z,18.00
2022-10-23T15:36:27.071Z,16.00
2022-10-23T15:38:54.597Z,17.15
2022-10-23T15:41:28.416Z,20.00
2022-10-23T15:43:56.016Z,18.05
2022-10-23T15:46:23.633Z,20.33
2022-10-23T15:48:51.272Z,19.70
2022-10-23T15:51:20.137Z,18.15
2022-10-23T15:53:49.354Z,18.48
2022-10-23T15:56:17.175Z,18.75
2022-10-23T15:58:44.638Z,16.55
2022-10-23T16:01:12.898Z,16.85
2022-10-23T16:03:40.688Z,20.50
2022-10-23T16:06:10.900Z,20.25
2022-10-23T16:08:38.692Z,19.25
2022-10-23T16:11:14.618Z,19.08
2022-10-23T16:13:43.655Z,19.62
2022-10-23T16:16:11.921Z,17.80
2022-10-23T16:18:40.414Z,19.02
2022-10-23T16:21:07.872Z,17.15
2022-10-23T16:23:35.608Z,16.52
2022-10-23T16:26:06.294Z,17.80
2022-10-23T16:28:33.761Z,15.75
2022-10-23T16:31:01.618Z,14.35
2022-10-23T16:33:29.007Z,16.02
2022-10-23T16:36:03.153Z,16.10
2022-10-23T16:38:31.260Z,14.63
2022-10-23T16:40:59.919Z,13.98
2022-10-23T16:43:29.942Z,13.85
2022-10-23T16:46:03.404Z,12.68
2022-10-23T16:48:31.736Z,10.80
2022-10-23T16:50:59.850Z,11.73
2022-10-23T16:53:29.293Z,13.70
2022-10-23T16:55:57.576Z,11.65
2022-10-23T16:58:26.637Z,12.00
2022-10-23T17:01:06.087Z,12.18
2022-10-23T17:03:37.470Z,10.25
2022-10-23T17:06:10.369Z,10.50
2022-10-23T17:08:40.015Z,11.95
2022-10-23T17:11:11.827Z,11.12
2022-10-23T17:13:45.232Z,13.70
2022-10-23T17:16:16.371Z,22.75
2022-10-23T17:18:44.948Z,20.10
2022-10-23T17:21:14.270Z,18.65
2022-10-23T17:23:42.550Z,17.83
2022-10-23T17:26:12.540Z,15.57
2022-10-23T17:28:42.731Z,14.23
2022-10-23T17:31:22.272Z,16.73
2022-10-23T17:33:53.094Z,12.18
2022-10-23T17:36:22.003Z,11.73
2022-10-23T17:38:49.744Z,15.93
2022-10-23T17:41:19.483Z,13.23
2022-10-23T17:43:48.624Z,13.73
2022-10-23T17:46:18.372Z,12.30
2022-10-23T17:48:46.178Z,14.85
2022-10-23T17:51:17.667Z,12.63
2022-10-23T17:53:47.484Z,12.82
2022-10-23T17:56:25.977Z,15.40
2022-10-23T17:58:56.195Z,11.10
2022-10-23T18:01:26.404Z,14.23
2022-10-23T18:03:55.677Z,10.73
2022-10-23T18:06:29.597Z,13.50
2022-10-23T18:08:58.541Z,16.52
2022-10-23T18:11:29.727Z,13.90
2022-10-23T18:16:28.298Z,13.48
2022-10-23T18:18:56.703Z,17.85
2022-10-23T18:21:28.639Z,13.43
2022-10-23T18:23:59.157Z,12.88
2022-10-23T18:26:29.023Z,13.90
2022-10-23T18:29:01.985Z,13.27
2022-10-23T18:31:32.714Z,24.05
2022-10-23T18:34:08.468Z,31.60
2022-10-23T18:36:39.020Z,16.17
2022-10-23T18:39:09.045Z,22.80
2022-10-23T18:41:39.980Z,19.77
2022-10-23T18:44:08.393Z,21.20
2022-10-23T18:46:36.863Z,13.82
2022-10-23T18:49:04.898Z,14.70
2022-10-23T18:51:35.812Z,13.80
2022-10-23T18:54:06.576Z,13.43
2022-10-23T18:56:36.426Z,17.62
2022-10-23T18:59:06.376Z,13.38
2022-10-23T19:01:35.552Z,12.37
2022-10-23T19:04:04.026Z,12.32
2022-10-23T19:06:32.518Z,12.55
2022-10-23T19:09:01.056Z,11.82
2022-10-23T19:11:29.357Z,11.43
2022-10-23T19:13:56.786Z,19.37
2022-10-23T19:16:29.051Z,13.60
2022-10-23T19:19:00.172Z,13.13
2022-10-23T19:21:32.165Z,19.40
2022-10-23T19:24:06.694Z,17.48
2022-10-23T19:26:35.532Z,16.02
2022-10-23T19:29:03.770Z,14.15
2022-10-23T19:31:31.874Z,18.00
2022-10-23T19:34:00.446Z,12.77
2022-10-23T19:36:27.802Z,16.00
2022-10-23T19:38:55.643Z,20.60
2022-10-23T19:41:23.906Z,14.57
2022-10-23T19:43:51.933Z,12.85
2022-10-23T19:46:19.862Z,15.00
2022-10-23T19:48:48.086Z,12.48
2022-10-23T19:51:15.916Z,14.60
2022-10-23T19:53:43.802Z,12.90
2022-10-23T19:56:13.287Z,14.05
2022-10-23T19:58:41.344Z,15.52
2022-10-23T20:01:14.928Z,13.65
2022-10-23T20:03:45.074Z,16.25
2022-10-23T20:06:14.266Z,18.05
2022-10-23T20:08:42.123Z,17.58
2022-10-23T20:11:10.468Z,18.30
2022-10-23T20:13:38.929Z,19.08
2022-10-23T20:16:08.074Z,28.33
2022-10-23T20:18:36.311Z,20.67
2022-10-23T20:21:04.318Z,21.52
2022-10-23T20:23:32.204Z,30.77
2022-10-23T20:26:05.422Z,26.73
2022-10-23T20:28:34.112Z,33.40
2022-10-23T20:31:09.168Z,35.47
2022-10-23T20:36:07.231Z,37.60
2022-10-23T20:38:35.727Z,31.62
2022-10-23T20:41:07.887Z,28.52
2022-10-23T20:43:36.008Z,23.95
2022-10-23T20:46:08.223Z,24.73
2022-10-23T20:48:40.275Z,26.70
2022-10-23T20:51:13.690Z,23.25
2022-10-23T20:53:42.146Z,22.30
2022-10-23T20:56:14.432Z,25.17
2022-10-23T20:58:43.086Z,21.80
2022-10-23T21:01:13.172Z,24.83
2022-10-23T21:03:40.650Z,23.70
2022-10-23T21:06:16.840Z,22.45
2022-10-23T21:08:44.213Z,21.15
2022-10-23T21:11:16.596Z,19.50
2022-10-23T21:13:44.765Z,22.60
2022-10-23T21:16:12.581Z,20.52
2022-10-23T21:18:47.130Z,23.27
2022-10-23T21:21:17.462Z,19.48
2022-10-23T21:23:50.043Z,19.65
2022-10-23T21:26:18.871Z,17.98
2022-10-23T21:28:56.283Z,18.60
2022-10-23T21:31:34.560Z,19.70
2022-10-23T21:34:01.973Z,20.55
2022-10-23T21:36:31.017Z,19.00
2022-10-23T21:39:01.937Z,18.83
2022-10-23T21:41:31.868Z,17.73
2022-10-23T21:44:02.356Z,18.58
2022-10-23T21:46:31.535Z,16.95
2022-10-23T21:49:00.652Z,20.40
2022-10-23T21:51:32.442Z,20.88
2022-10-23T21:54:00.058Z,22.23
2022-10-23T21:56:30.728Z,20.90
2022-10-23T21:59:00.131Z,23.70
2022-10-23T22:01:28.405Z,19.83
2022-10-23T22:03:56.298Z,21.12
2022-10-23T22:06:28.366Z,22.55
2022-10-23T22:08:57.549Z,22.67
2022-10-23T22:11:25.638Z,27.42
2022-10-23T22:13:53.430Z,23.73
2022-10-23T22:16:21.062Z,25.10
2022-10-23T22:18:48.624Z,26.62
2022-10-23T22:21:21.550Z,24.02
2022-10-23T22:23:49.560Z,30.40
2022-10-23T22:26:26.496Z,26.60
2022-10-23T22:28:55.658Z,32.55
2022-10-23T22:31:28.440Z,38.03
2022-10-23T22:33:56.449Z,38.30
2022-10-23T22:36:24.961Z,33.40
2022-10-23T22:38:53.215Z,28.65
2022-10-23T22:41:21.068Z,30.62
2022-10-23T22:43:48.567Z,27.70
2022-10-23T22:46:18.561Z,26.37
2022-10-23T22:48:46.243Z,22.13
2022-10-23T22:51:15.333Z,17.45
2022-10-23T22:53:43.130Z,20.83
2022-10-23T22:56:14.047Z,19.08
2022-10-23T22:58:42.080Z,18.40
2022-10-23T23:01:09.367Z,15.93
2022-10-23T23:03:37.661Z,15.93
2022-10-23T23:06:06.927Z,15.80
2022-10-23T23:08:35.868Z,17.95
2022-10-23T23:11:03.954Z,15.80
2022-10-23T23:13:31.662Z,18.95
2022-10-23T23:15:59.372Z,20.67
2022-10-23T23:18:27.652Z,18.52
2022-10-23T23:20:55.013Z,17.70
2022-10-23T23:23:22.355Z,19.42
2022-10-23T23:25:50.258Z,18.17
2022-10-23T23:28:19.631Z,16.85
2022-10-23T23:30:47.959Z,18.45
2022-10-23T23:33:19.216Z,18.30
2022-10-23T23:35:48.241Z,19.10
2022-10-23T23:38:15.872Z,22.25
2022-10-23T23:40:50.572Z,21.17
2022-10-23T23:43:18.371Z,22.10
2022-10-23T23:45:46.208Z,19.73
2022-10-23T23:48:13.528Z,19.17
2022-10-23T23:50:41.206Z,22.37
2022-10-23T23:53:08.608Z,19.77
2022-10-23T23:55:36.321Z,18.77
2022-10-23T23:58:04.447Z,20.48
